sensor_id;sensor_type;location;lat;lon;timestamp;P1;durP1;ratioP1;P2;durP2;ratioP2
10880;SDS011;5493;48.884;8.338;2023-06-26T00:00:59;5.50;;;4.55;;
10880;SDS011;5493;48.884;8.338;2023-06-26T00:03:27;6.15;;;4.70;;
10880;SDS011;5493;48.884;8.338;2023-06-26T00:05:54;7.15;;;4.80;;
10880;SDS011;5493;48.884;8.338;2023-06-26T00:08:25;6.03;;;4.60;;
10880;SDS011;5493;48.884;8.338;2023-06-26T00:10:52;7.57;;;4.70;;
10880;SDS011;5493;48.884;8.338;2023-06-26T00:13:18;6.25;;;4.40;;
10880;SDS011;5493;48.884;8.338;2023-06-26T00:15:45;6.43;;;4.43;;
10880;SDS011;5493;48.884;8.338;2023-06-26T00:18:13;5.82;;;4.63;;
10880;SDS011;5493;48.884;8.338;2023-06-26T00:20:39;6.00;;;4.70;;
10880;SDS011;5493;48.884;8.338;2023-06-26T00:23:06;5.60;;;4.40;;
10880;SDS011;5493;48.884;8.338;2023-06-26T00:25:32;6.68;;;4.72;;
10880;SDS011;5493;48.884;8.338;2023-06-26T00:27:59;5.82;;;4.55;;
10880;SDS011;5493;48.884;8.338;2023-06-26T00:30:26;6.28;;;4.68;;
10880;SDS011;5493;48.884;8.338;2023-06-26T00:32:52;6.70;;;4.32;;
10880;SDS011;5493;48.884;8.338;2023-06-26T00:35:20;7.20;;;4.70;;
10880;SDS011;5493;48.884;8.338;2023-06-26T00:37:47;5.60;;;4.40;;
10880;SDS011;5493;48.884;8.338;2023-06-26T00:40:13;6.72;;;4.00;;
10880;SDS011;5493;48.884;8.338;2023-06-26T00:42:40;6.78;;;5.13;;
10880;SDS011;5493;48.884;8.338;2023-06-26T00:45:06;5.53;;;4.45;;
10880;SDS011;5493;48.884;8.338;2023-06-26T00:47:33;5.63;;;4.65;;
10880;SDS011;5493;48.884;8.338;2023-06-26T00:49:59;5.05;;;4.50;;
10880;SDS011;5493;48.884;8.338;2023-06-26T00:52:28;5.95;;;4.55;;
10880;SDS011;5493;48.884;8.338;2023-06-26T00:54:54;5.75;;;4.57;;
10880;SDS011;5493;48.884;8.338;2023-06-26T00:57:22;7.03;;;4.70;;
10880;SDS011;5493;48.884;8.338;2023-06-26T00:59:49;6.30;;;4.50;;
10880;SDS011;5493;48.884;8.338;2023-06-26T01:02:16;6.05;;;4.88;;
10880;SDS011;5493;48.884;8.338;2023-06-26T01:04:45;5.47;;;4.30;;
10880;SDS011;5493;48.884;8.338;2023-06-26T01:07:12;6.88;;;4.57;;
10880;SDS011;5493;48.884;8.338;2023-06-26T01:09:42;5.93;;;4.50;;
10880;SDS011;5493;48.884;8.338;2023-06-26T01:12:08;5.93;;;4.50;;
10880;SDS011;5493;48.884;8.338;2023-06-26T01:14:35;6.25;;;4.72;;
10880;SDS011;5493;48.884;8.338;2023-06-26T01:17:02;4.45;;;4.05;;
10880;SDS011;5493;48.884;8.338;2023-06-26T01:19:30;5.75;;;4.45;;
10880;SDS011;5493;48.884;8.338;2023-06-26T01:22:00;6.40;;;4.75;;
10880;SDS011;5493;48.884;8.338;2023-06-26T01:24:39;5.10;;;4.20;;
10880;SDS011;5493;48.884;8.338;2023-06-26T01:27:13;6.05;;;4.50;;
10880;SDS011;5493;48.884;8.338;2023-06-26T01:29:41;7.15;;;4.60;;
10880;SDS011;5493;48.884;8.338;2023-06-26T01:32:10;5.78;;;4.50;;
10880;SDS011;5493;48.884;8.338;2023-06-26T01:34:37;5.10;;;4.22;;
10880;SDS011;5493;48.884;8.338;2023-06-26T01:37:04;6.40;;;4.60;;
10880;SDS011;5493;48.884;8.338;2023-06-26T01:39:30;6.00;;;4.28;;
10880;SDS011;5493;48.884;8.338;2023-06-26T01:41:56;5.88;;;4.68;;
10880;SDS011;5493;48.884;8.338;2023-06-26T01:44:27;6.03;;;4.65;;
10880;SDS011;5493;48.884;8.338;2023-06-26T01:46:59;5.65;;;4.72;;
10880;SDS011;5493;48.884;8.338;2023-06-26T01:49:31;4.97;;;4.35;;
10880;SDS011;5493;48.884;8.338;2023-06-26T01:52:06;5.75;;;4.65;;
10880;SDS011;5493;48.884;8.338;2023-06-26T01:54:42;5.35;;;4.80;;
10880;SDS011;5493;48.884;8.338;2023-06-26T01:57:15;4.80;;;4.22;;
10880;SDS011;5493;48.884;8.338;2023-06-26T01:59:46;5.37;;;4.37;;
10880;SDS011;5493;48.884;8.338;2023-06-26T02:02:13;6.10;;;4.63;;
10880;SDS011;5493;48.884;8.338;2023-06-26T02:04:40;6.63;;;4.65;;
10880;SDS011;5493;48.884;8.338;2023-06-26T02:07:07;5.93;;;4.90;;
10880;SDS011;5493;48.884;8.338;2023-06-26T02:09:35;6.05;;;4.45;;
10880;SDS011;5493;48.884;8.338;2023-06-26T02:12:01;5.07;;;4.18;;
10880;SDS011;5493;48.884;8.338;2023-06-26T02:14:28;6.10;;;4.53;;
10880;SDS011;5493;48.884;8.338;2023-06-26T02:16:55;6.22;;;5.10;;
10880;SDS011;5493;48.884;8.338;2023-06-26T02:19:22;5.87;;;4.90;;
10880;SDS011;5493;48.884;8.338;2023-06-26T02:21:50;6.40;;;4.80;;
10880;SDS011;5493;48.884;8.338;2023-06-26T02:24:16;8.50;;;4.68;;
10880;SDS011;5493;48.884;8.338;2023-06-26T02:26:43;6.22;;;5.00;;
10880;SDS011;5493;48.884;8.338;2023-06-26T02:29:09;6.22;;;4.47;;
10880;SDS011;5493;48.884;8.338;2023-06-26T02:31:36;10.00;;;4.90;;
10880;SDS011;5493;48.884;8.338;2023-06-26T02:34:04;5.20;;;4.35;;
10880;SDS011;5493;48.884;8.338;2023-06-26T02:36:30;6.10;;;4.67;;
10880;SDS011;5493;48.884;8.338;2023-06-26T02:38:57;4.50;;;4.10;;
10880;SDS011;5493;48.884;8.338;2023-06-26T02:41:23;6.35;;;4.60;;
10880;SDS011;5493;48.884;8.338;2023-06-26T02:43:50;5.30;;;4.70;;
10880;SDS011;5493;48.884;8.338;2023-06-26T02:46:16;6.67;;;4.27;;
10880;SDS011;5493;48.884;8.338;2023-06-26T02:48:43;6.80;;;4.83;;
10880;SDS011;5493;48.884;8.338;2023-06-26T02:51:10;5.83;;;4.53;;
10880;SDS011;5493;48.884;8.338;2023-06-26T02:53:37;5.80;;;4.60;;
10880;SDS011;5493;48.884;8.338;2023-06-26T02:56:04;6.60;;;4.40;;
10880;SDS011;5493;48.884;8.338;2023-06-26T02:58:30;6.07;;;4.70;;
10880;SDS011;5493;48.884;8.338;2023-06-26T03:00:57;6.20;;;4.40;;
10880;SDS011;5493;48.884;8.338;2023-06-26T03:03:23;4.77;;;4.20;;
10880;SDS011;5493;48.884;8.338;2023-06-26T03:05:50;6.85;;;4.93;;
10880;SDS011;5493;48.884;8.338;2023-06-26T03:08:18;6.40;;;4.33;;
10880;SDS011;5493;48.884;8.338;2023-06-26T03:10:44;5.40;;;4.13;;
10880;SDS011;5493;48.884;8.338;2023-06-26T03:13:11;6.83;;;4.80;;
10880;SDS011;5493;48.884;8.338;2023-06-26T03:15:37;9.43;;;4.80;;
10880;SDS011;5493;48.884;8.338;2023-06-26T03:18:04;9.00;;;4.77;;
10880;SDS011;5493;48.884;8.338;2023-06-26T03:20:30;6.57;;;4.47;;
10880;SDS011;5493;48.884;8.338;2023-06-26T03:22:57;6.23;;;4.57;;
10880;SDS011;5493;48.884;8.338;2023-06-26T03:25:24;7.00;;;4.90;;
10880;SDS011;5493;48.884;8.338;2023-06-26T03:27:51;7.20;;;4.80;;
10880;SDS011;5493;48.884;8.338;2023-06-26T03:30:17;9.10;;;4.80;;
10880;SDS011;5493;48.884;8.338;2023-06-26T03:32:44;6.73;;;4.80;;
10880;SDS011;5493;48.884;8.338;2023-06-26T03:35:10;5.40;;;4.53;;
10880;SDS011;5493;48.884;8.338;2023-06-26T03:37:37;6.27;;;4.57;;
10880;SDS011;5493;48.884;8.338;2023-06-26T03:40:04;7.70;;;4.57;;
10880;SDS011;5493;48.884;8.338;2023-06-26T03:42:32;5.77;;;4.47;;
10880;SDS011;5493;48.884;8.338;2023-06-26T03:44:58;6.07;;;5.07;;
10880;SDS011;5493;48.884;8.338;2023-06-26T03:47:25;6.50;;;5.07;;
10880;SDS011;5493;48.884;8.338;2023-06-26T03:49:51;6.77;;;4.60;;
10880;SDS011;5493;48.884;8.338;2023-06-26T03:52:18;6.80;;;5.27;;
10880;SDS011;5493;48.884;8.338;2023-06-26T03:54:44;6.17;;;4.70;;
10880;SDS011;5493;48.884;8.338;2023-06-26T03:57:11;6.73;;;5.40;;
10880;SDS011;5493;48.884;8.338;2023-06-26T03:59:39;6.97;;;4.47;;
10880;SDS011;5493;48.884;8.338;2023-06-26T04:02:05;6.23;;;4.80;;
10880;SDS011;5493;48.884;8.338;2023-06-26T04:04:32;7.47;;;4.67;;
10880;SDS011;5493;48.884;8.338;2023-06-26T04:06:58;6.40;;;4.77;;
10880;SDS011;5493;48.884;8.338;2023-06-26T04:09:25;6.70;;;4.90;;
10880;SDS011;5493;48.884;8.338;2023-06-26T04:11:51;5.87;;;5.03;;
10880;SDS011;5493;48.884;8.338;2023-06-26T04:14:18;6.57;;;4.87;;
10880;SDS011;5493;48.884;8.338;2023-06-26T04:16:46;5.80;;;4.73;;
10880;SDS011;5493;48.884;8.338;2023-06-26T04:19:12;5.50;;;4.63;;
10880;SDS011;5493;48.884;8.338;2023-06-26T04:21:39;7.20;;;4.70;;
10880;SDS011;5493;48.884;8.338;2023-06-26T04:24:06;5.97;;;4.97;;
10880;SDS011;5493;48.884;8.338;2023-06-26T04:26:32;5.47;;;4.75;;
10880;SDS011;5493;48.884;8.338;2023-06-26T04:28:59;7.32;;;4.82;;
10880;SDS011;5493;48.884;8.338;2023-06-26T04:31:25;6.30;;;4.60;;
10880;SDS011;5493;48.884;8.338;2023-06-26T04:33:53;6.68;;;4.90;;
10880;SDS011;5493;48.884;8.338;2023-06-26T04:36:20;6.82;;;5.18;;
10880;SDS011;5493;48.884;8.338;2023-06-26T04:38:47;6.10;;;4.90;;
10880;SDS011;5493;48.884;8.338;2023-06-26T04:41:14;5.50;;;4.85;;
10880;SDS011;5493;48.884;8.338;2023-06-26T04:43:40;5.47;;;4.30;;
10880;SDS011;5493;48.884;8.338;2023-06-26T04:46:07;6.15;;;4.75;;
10880;SDS011;5493;48.884;8.338;2023-06-26T04:48:33;5.95;;;4.70;;
10880;SDS011;5493;48.884;8.338;2023-06-26T04:51:01;5.45;;;4.30;;
10880;SDS011;5493;48.884;8.338;2023-06-26T04:53:28;6.55;;;4.47;;
10880;SDS011;5493;48.884;8.338;2023-06-26T04:55:54;5.50;;;4.85;;
10880;SDS011;5493;48.884;8.338;2023-06-26T04:58:21;5.38;;;4.68;;
10880;SDS011;5493;48.884;8.338;2023-06-26T05:00:47;5.22;;;4.45;;
10880;SDS011;5493;48.884;8.338;2023-06-26T05:03:14;6.13;;;4.78;;
10880;SDS011;5493;48.884;8.338;2023-06-26T05:05:42;5.20;;;4.47;;
10880;SDS011;5493;48.884;8.338;2023-06-26T05:08:16;5.55;;;4.60;;
10880;SDS011;5493;48.884;8.338;2023-06-26T05:10:43;5.95;;;4.40;;
10880;SDS011;5493;48.884;8.338;2023-06-26T05:13:10;5.45;;;4.72;;
10880;SDS011;5493;48.884;8.338;2023-06-26T05:15:40;6.25;;;4.50;;
10880;SDS011;5493;48.884;8.338;2023-06-26T05:18:06;4.78;;;4.38;;
10880;SDS011;5493;48.884;8.338;2023-06-26T05:20:33;5.88;;;4.22;;
10880;SDS011;5493;48.884;8.338;2023-06-26T05:23:00;5.00;;;4.50;;
10880;SDS011;5493;48.884;8.338;2023-06-26T05:25:29;5.43;;;4.75;;
10880;SDS011;5493;48.884;8.338;2023-06-26T05:27:56;4.50;;;4.10;;
10880;SDS011;5493;48.884;8.338;2023-06-26T05:30:23;5.78;;;4.50;;
10880;SDS011;5493;48.884;8.338;2023-06-26T05:32:51;5.05;;;4.55;;
10880;SDS011;5493;48.884;8.338;2023-06-26T05:35:18;4.85;;;4.35;;
10880;SDS011;5493;48.884;8.338;2023-06-26T05:37:47;5.15;;;4.38;;
10880;SDS011;5493;48.884;8.338;2023-06-26T05:40:15;5.00;;;4.50;;
10880;SDS011;5493;48.884;8.338;2023-06-26T05:42:44;6.05;;;4.60;;
10880;SDS011;5493;48.884;8.338;2023-06-26T05:45:11;5.25;;;4.75;;
10880;SDS011;5493;48.884;8.338;2023-06-26T05:47:37;4.97;;;4.47;;
10880;SDS011;5493;48.884;8.338;2023-06-26T05:50:05;5.30;;;4.30;;
10880;SDS011;5493;48.884;8.338;2023-06-26T05:52:32;5.05;;;4.50;;
10880;SDS011;5493;48.884;8.338;2023-06-26T05:55:00;7.95;;;4.78;;
10880;SDS011;5493;48.884;8.338;2023-06-26T05:57:27;7.35;;;4.80;;
10880;SDS011;5493;48.884;8.338;2023-06-26T05:59:56;5.95;;;4.90;;
10880;SDS011;5493;48.884;8.338;2023-06-26T06:02:23;4.88;;;4.28;;
10880;SDS011;5493;48.884;8.338;2023-06-26T06:04:50;5.32;;;4.80;;
10880;SDS011;5493;48.884;8.338;2023-06-26T06:07:16;4.97;;;4.57;;
10880;SDS011;5493;48.884;8.338;2023-06-26T06:09:43;5.70;;;4.53;;
10880;SDS011;5493;48.884;8.338;2023-06-26T06:12:09;7.18;;;4.80;;
10880;SDS011;5493;48.884;8.338;2023-06-26T06:14:36;8.40;;;4.50;;
10880;SDS011;5493;48.884;8.338;2023-06-26T06:17:04;5.75;;;4.60;;
10880;SDS011;5493;48.884;8.338;2023-06-26T06:19:30;4.72;;;4.22;;
10880;SDS011;5493;48.884;8.338;2023-06-26T06:21:57;4.88;;;4.47;;
10880;SDS011;5493;48.884;8.338;2023-06-26T06:24:23;5.03;;;4.53;;
10880;SDS011;5493;48.884;8.338;2023-06-26T06:26:50;4.72;;;4.28;;
10880;SDS011;5493;48.884;8.338;2023-06-26T06:29:16;4.80;;;4.40;;
10880;SDS011;5493;48.884;8.338;2023-06-26T06:31:44;5.32;;;4.32;;
10880;SDS011;5493;48.884;8.338;2023-06-26T06:34:11;5.85;;;4.85;;
10880;SDS011;5493;48.884;8.338;2023-06-26T06:36:38;4.70;;;4.30;;
10880;SDS011;5493;48.884;8.338;2023-06-26T06:39:04;4.70;;;4.22;;
10880;SDS011;5493;48.884;8.338;2023-06-26T06:41:31;5.97;;;4.38;;
10880;SDS011;5493;48.884;8.338;2023-06-26T06:43:57;5.93;;;4.50;;
10880;SDS011;5493;48.884;8.338;2023-06-26T06:46:24;4.70;;;4.20;;
10880;SDS011;5493;48.884;8.338;2023-06-26T06:48:52;5.68;;;4.10;;
10880;SDS011;5493;48.884;8.338;2023-06-26T06:51:20;4.65;;;4.25;;
10880;SDS011;5493;48.884;8.338;2023-06-26T06:53:46;5.82;;;4.57;;
10880;SDS011;5493;48.884;8.338;2023-06-26T06:56:13;5.82;;;4.57;;
10880;SDS011;5493;48.884;8.338;2023-06-26T06:58:39;4.72;;;4.32;;
10880;SDS011;5493;48.884;8.338;2023-06-26T07:01:07;5.50;;;4.38;;
10880;SDS011;5493;48.884;8.338;2023-06-26T07:03:34;6.85;;;4.30;;
10880;SDS011;5493;48.884;8.338;2023-06-26T07:06:01;4.93;;;4.43;;
10880;SDS011;5493;48.884;8.338;2023-06-26T07:08:29;4.53;;;4.13;;
10880;SDS011;5493;48.884;8.338;2023-06-26T07:10:56;4.50;;;4.10;;
10880;SDS011;5493;48.884;8.338;2023-06-26T07:13:22;5.03;;;4.53;;
10880;SDS011;5493;48.884;8.338;2023-06-26T07:15:49;4.75;;;4.35;;
10880;SDS011;5493;48.884;8.338;2023-06-26T07:18:16;4.07;;;3.75;;
10880;SDS011;5493;48.884;8.338;2023-06-26T07:20:42;5.80;;;4.22;;
10880;SDS011;5493;48.884;8.338;2023-06-26T07:23:09;4.82;;;4.22;;
10880;SDS011;5493;48.884;8.338;2023-06-26T07:25:37;5.05;;;4.35;;
10880;SDS011;5493;48.884;8.338;2023-06-26T07:28:05;5.75;;;4.10;;
10880;SDS011;5493;48.884;8.338;2023-06-26T07:30:36;5.35;;;4.30;;
10880;SDS011;5493;48.884;8.338;2023-06-26T07:33:02;4.80;;;4.30;;
10880;SDS011;5493;48.884;8.338;2023-06-26T07:35:29;6.40;;;3.95;;
10880;SDS011;5493;48.884;8.338;2023-06-26T07:37:55;4.53;;;3.78;;
10880;SDS011;5493;48.884;8.338;2023-06-26T07:40:22;4.50;;;4.10;;
10880;SDS011;5493;48.884;8.338;2023-06-26T07:42:50;4.45;;;4.05;;
10880;SDS011;5493;48.884;8.338;2023-06-26T07:45:16;4.85;;;3.75;;
10880;SDS011;5493;48.884;8.338;2023-06-26T07:47:43;4.10;;;3.78;;
10880;SDS011;5493;48.884;8.338;2023-06-26T07:50:10;4.75;;;3.80;;
10880;SDS011;5493;48.884;8.338;2023-06-26T07:52:36;4.13;;;3.72;;
10880;SDS011;5493;48.884;8.338;2023-06-26T07:55:03;4.55;;;3.30;;
10880;SDS011;5493;48.884;8.338;2023-06-26T07:57:30;4.22;;;3.70;;
10880;SDS011;5493;48.884;8.338;2023-06-26T07:59:59;4.72;;;3.60;;
10880;SDS011;5493;48.884;8.338;2023-06-26T08:02:25;4.60;;;3.47;;
10880;SDS011;5493;48.884;8.338;2023-06-26T08:04:52;4.18;;;3.65;;
10880;SDS011;5493;48.884;8.338;2023-06-26T08:07:18;3.72;;;3.42;;
10880;SDS011;5493;48.884;8.338;2023-06-26T08:09:44;5.25;;;3.35;;
10880;SDS011;5493;48.884;8.338;2023-06-26T08:12:11;4.25;;;3.75;;
10880;SDS011;5493;48.884;8.338;2023-06-26T08:14:37;4.20;;;3.53;;
10880;SDS011;5493;48.884;8.338;2023-06-26T08:17:05;3.90;;;3.60;;
10880;SDS011;5493;48.884;8.338;2023-06-26T08:19:32;4.43;;;3.75;;
10880;SDS011;5493;48.884;8.338;2023-06-26T08:21:58;6.13;;;3.70;;
10880;SDS011;5493;48.884;8.338;2023-06-26T08:24:25;3.63;;;3.33;;
10880;SDS011;5493;48.884;8.338;2023-06-26T08:26:51;4.20;;;3.67;;
10880;SDS011;5493;48.884;8.338;2023-06-26T08:29:17;6.90;;;3.78;;
10880;SDS011;5493;48.884;8.338;2023-06-26T08:31:44;5.07;;;3.88;;
10880;SDS011;5493;48.884;8.338;2023-06-26T08:34:12;5.80;;;4.32;;
10880;SDS011;5493;48.884;8.338;2023-06-26T08:36:38;4.75;;;3.97;;
10880;SDS011;5493;48.884;8.338;2023-06-26T08:39:05;5.22;;;3.58;;
10880;SDS011;5493;48.884;8.338;2023-06-26T08:41:33;4.50;;;4.10;;
10880;SDS011;5493;48.884;8.338;2023-06-26T08:44:00;4.43;;;4.03;;
10880;SDS011;5493;48.884;8.338;2023-06-26T08:46:28;4.65;;;3.83;;
10880;SDS011;5493;48.884;8.338;2023-06-26T08:48:55;6.47;;;3.80;;
10880;SDS011;5493;48.884;8.338;2023-06-26T08:51:24;6.13;;;4.05;;
10880;SDS011;5493;48.884;8.338;2023-06-26T08:53:56;5.10;;;4.05;;
10880;SDS011;5493;48.884;8.338;2023-06-26T08:56:23;5.10;;;3.80;;
10880;SDS011;5493;48.884;8.338;2023-06-26T08:58:51;4.40;;;4.00;;
10880;SDS011;5493;48.884;8.338;2023-06-26T09:01:18;5.13;;;3.88;;
10880;SDS011;5493;48.884;8.338;2023-06-26T09:03:44;5.03;;;3.90;;
10880;SDS011;5493;48.884;8.338;2023-06-26T09:06:11;3.88;;;3.58;;
10880;SDS011;5493;48.884;8.338;2023-06-26T09:08:39;4.53;;;3.85;;
10880;SDS011;5493;48.884;8.338;2023-06-26T09:11:05;6.15;;;3.55;;
10880;SDS011;5493;48.884;8.338;2023-06-26T09:13:32;4.15;;;3.75;;
10880;SDS011;5493;48.884;8.338;2023-06-26T09:15:59;4.18;;;3.67;;
10880;SDS011;5493;48.884;8.338;2023-06-26T09:18:30;5.60;;;3.70;;
10880;SDS011;5493;48.884;8.338;2023-06-26T09:20:58;4.30;;;3.60;;
10880;SDS011;5493;48.884;8.338;2023-06-26T09:23:25;4.43;;;3.42;;
10880;SDS011;5493;48.884;8.338;2023-06-26T09:25:54;5.20;;;4.07;;
10880;SDS011;5493;48.884;8.338;2023-06-26T09:28:20;4.85;;;3.40;;
10880;SDS011;5493;48.884;8.338;2023-06-26T09:30:47;6.38;;;3.72;;
10880;SDS011;5493;48.884;8.338;2023-06-26T09:33:15;7.28;;;3.80;;
10880;SDS011;5493;48.884;8.338;2023-06-26T09:35:43;6.43;;;3.95;;
10880;SDS011;5493;48.884;8.338;2023-06-26T09:38:10;4.35;;;3.95;;
10880;SDS011;5493;48.884;8.338;2023-06-26T09:40:37;5.30;;;3.80;;
10880;SDS011;5493;48.884;8.338;2023-06-26T09:43:06;7.20;;;3.75;;
10880;SDS011;5493;48.884;8.338;2023-06-26T09:45:33;4.63;;;3.83;;
10880;SDS011;5493;48.884;8.338;2023-06-26T09:48:01;4.05;;;3.65;;
10880;SDS011;5493;48.884;8.338;2023-06-26T09:50:28;5.10;;;3.67;;
10880;SDS011;5493;48.884;8.338;2023-06-26T09:52:57;4.95;;;3.85;;
10880;SDS011;5493;48.884;8.338;2023-06-26T09:55:24;5.00;;;3.90;;
10880;SDS011;5493;48.884;8.338;2023-06-26T09:57:51;6.10;;;4.05;;
10880;SDS011;5493;48.884;8.338;2023-06-26T10:00:21;6.82;;;4.00;;
10880;SDS011;5493;48.884;8.338;2023-06-26T10:02:48;4.28;;;3.83;;
10880;SDS011;5493;48.884;8.338;2023-06-26T10:05:14;5.57;;;4.05;;
10880;SDS011;5493;48.884;8.338;2023-06-26T10:07:41;5.95;;;4.03;;
10880;SDS011;5493;48.884;8.338;2023-06-26T10:10:08;6.63;;;4.07;;
10880;SDS011;5493;48.884;8.338;2023-06-26T10:12:36;5.05;;;3.67;;
10880;SDS011;5493;48.884;8.338;2023-06-26T10:15:02;5.82;;;4.00;;
10880;SDS011;5493;48.884;8.338;2023-06-26T10:17:34;9.35;;;4.03;;
10880;SDS011;5493;48.884;8.338;2023-06-26T10:20:03;5.63;;;4.18;;
10880;SDS011;5493;48.884;8.338;2023-06-26T10:22:33;6.55;;;4.00;;
10880;SDS011;5493;48.884;8.338;2023-06-26T10:25:04;7.20;;;3.95;;
10880;SDS011;5493;48.884;8.338;2023-06-26T10:27:33;4.53;;;3.50;;
10880;SDS011;5493;48.884;8.338;2023-06-26T10:30:05;4.30;;;3.90;;
10880;SDS011;5493;48.884;8.338;2023-06-26T10:32:38;4.18;;;3.78;;
10880;SDS011;5493;48.884;8.338;2023-06-26T10:35:06;5.00;;;3.50;;
10880;SDS011;5493;48.884;8.338;2023-06-26T10:37:42;4.05;;;3.75;;
10880;SDS011;5493;48.884;8.338;2023-06-26T10:40:10;3.97;;;3.50;;
10880;SDS011;5493;48.884;8.338;2023-06-26T10:42:38;4.68;;;3.35;;
10880;SDS011;5493;48.884;8.338;2023-06-26T10:45:09;4.50;;;3.97;;
10880;SDS011;5493;48.884;8.338;2023-06-26T10:47:39;5.13;;;3.30;;
10880;SDS011;5493;48.884;8.338;2023-06-26T10:50:16;6.20;;;3.80;;
10880;SDS011;5493;48.884;8.338;2023-06-26T10:52:53;3.88;;;3.40;;
10880;SDS011;5493;48.884;8.338;2023-06-26T10:55:33;5.35;;;4.40;;
10880;SDS011;5493;48.884;8.338;2023-06-26T10:58:00;5.53;;;3.50;;
10880;SDS011;5493;48.884;8.338;2023-06-26T11:00:27;3.70;;;3.40;;
10880;SDS011;5493;48.884;8.338;2023-06-26T11:02:55;4.75;;;3.55;;
10880;SDS011;5493;48.884;8.338;2023-06-26T11:05:25;4.00;;;3.30;;
10880;SDS011;5493;48.884;8.338;2023-06-26T11:08:05;4.65;;;3.30;;
10880;SDS011;5493;48.884;8.338;2023-06-26T11:10:48;3.75;;;3.38;;
10880;SDS011;5493;48.884;8.338;2023-06-26T11:13:16;4.47;;;3.53;;
10880;SDS011;5493;48.884;8.338;2023-06-26T11:15:44;5.03;;;3.15;;
10880;SDS011;5493;48.884;8.338;2023-06-26T11:18:12;3.67;;;3.38;;
10880;SDS011;5493;48.884;8.338;2023-06-26T11:20:39;3.55;;;3.25;;
10880;SDS011;5493;48.884;8.338;2023-06-26T11:23:05;4.75;;;3.70;;
10880;SDS011;5493;48.884;8.338;2023-06-26T11:25:34;4.55;;;3.40;;
10880;SDS011;5493;48.884;8.338;2023-06-26T11:28:02;4.57;;;3.22;;
10880;SDS011;5493;48.884;8.338;2023-06-26T11:30:29;5.00;;;3.33;;
10880;SDS011;5493;48.884;8.338;2023-06-26T11:33:06;4.07;;;3.60;;
10880;SDS011;5493;48.884;8.338;2023-06-26T11:35:34;5.07;;;3.00;;
10880;SDS011;5493;48.884;8.338;2023-06-26T11:38:02;6.05;;;3.30;;
10880;SDS011;5493;48.884;8.338;2023-06-26T11:40:30;3.15;;;2.85;;
10880;SDS011;5493;48.884;8.338;2023-06-26T11:42:58;4.60;;;3.03;;
10880;SDS011;5493;48.884;8.338;2023-06-26T11:45:25;6.93;;;3.00;;
10880;SDS011;5493;48.884;8.338;2023-06-26T11:47:54;3.58;;;3.13;;
10880;SDS011;5493;48.884;8.338;2023-06-26T11:50:21;3.55;;;3.20;;
10880;SDS011;5493;48.884;8.338;2023-06-26T11:52:54;5.28;;;3.30;;
10880;SDS011;5493;48.884;8.338;2023-06-26T11:55:21;3.78;;;2.97;;
10880;SDS011;5493;48.884;8.338;2023-06-26T11:57:48;7.60;;;3.03;;
10880;SDS011;5493;48.884;8.338;2023-06-26T12:00:15;3.10;;;2.80;;
10880;SDS011;5493;48.884;8.338;2023-06-26T12:02:43;2.78;;;2.45;;
10880;SDS011;5493;48.884;8.338;2023-06-26T12:05:10;5.35;;;2.83;;
10880;SDS011;5493;48.884;8.338;2023-06-26T12:07:38;2.92;;;2.50;;
10880;SDS011;5493;48.884;8.338;2023-06-26T12:10:06;5.60;;;2.53;;
10880;SDS011;5493;48.884;8.338;2023-06-26T12:12:34;2.70;;;2.40;;
10880;SDS011;5493;48.884;8.338;2023-06-26T12:15:01;3.88;;;2.60;;
10880;SDS011;5493;48.884;8.338;2023-06-26T12:17:27;2.88;;;2.47;;
10880;SDS011;5493;48.884;8.338;2023-06-26T12:19:54;2.75;;;2.47;;
10880;SDS011;5493;48.884;8.338;2023-06-26T12:22:21;3.80;;;2.40;;
10880;SDS011;5493;48.884;8.338;2023-06-26T12:24:47;3.03;;;2.35;;
10880;SDS011;5493;48.884;8.338;2023-06-26T12:27:17;2.70;;;2.40;;
10880;SDS011;5493;48.884;8.338;2023-06-26T12:29:46;2.30;;;2.10;;
10880;SDS011;5493;48.884;8.338;2023-06-26T12:32:16;2.67;;;2.38;;
10880;SDS011;5493;48.884;8.338;2023-06-26T12:34:46;2.55;;;2.17;;
10880;SDS011;5493;48.884;8.338;2023-06-26T12:37:14;2.72;;;2.35;;
10880;SDS011;5493;48.884;8.338;2023-06-26T12:39:48;2.42;;;2.20;;
10880;SDS011;5493;48.884;8.338;2023-06-26T12:42:17;3.08;;;2.08;;
10880;SDS011;5493;48.884;8.338;2023-06-26T12:44:44;9.75;;;2.70;;
10880;SDS011;5493;48.884;8.338;2023-06-26T12:47:13;3.38;;;2.20;;
10880;SDS011;5493;48.884;8.338;2023-06-26T12:49:41;5.55;;;2.33;;
10880;SDS011;5493;48.884;8.338;2023-06-26T12:52:10;3.60;;;3.00;;
10880;SDS011;5493;48.884;8.338;2023-06-26T12:54:38;5.88;;;5.28;;
10880;SDS011;5493;48.884;8.338;2023-06-26T12:57:06;5.15;;;4.20;;
10880;SDS011;5493;48.884;8.338;2023-06-26T12:59:35;2.42;;;2.22;;
10880;SDS011;5493;48.884;8.338;2023-06-26T13:02:02;3.28;;;2.33;;
10880;SDS011;5493;48.884;8.338;2023-06-26T13:04:29;3.00;;;2.10;;
10880;SDS011;5493;48.884;8.338;2023-06-26T13:06:56;4.45;;;2.40;;
10880;SDS011;5493;48.884;8.338;2023-06-26T13:09:23;4.53;;;2.80;;
10880;SDS011;5493;48.884;8.338;2023-06-26T13:11:50;3.88;;;3.03;;
10880;SDS011;5493;48.884;8.338;2023-06-26T13:14:17;4.30;;;2.95;;
10880;SDS011;5493;48.884;8.338;2023-06-26T13:16:45;3.15;;;2.63;;
10880;SDS011;5493;48.884;8.338;2023-06-26T13:19:11;4.72;;;2.70;;
10880;SDS011;5493;48.884;8.338;2023-06-26T13:21:38;2.83;;;1.85;;
10880;SDS011;5493;48.884;8.338;2023-06-26T13:24:04;3.45;;;2.22;;
10880;SDS011;5493;48.884;8.338;2023-06-26T13:26:31;3.50;;;2.42;;
10880;SDS011;5493;48.884;8.338;2023-06-26T13:28:58;3.65;;;2.70;;
10880;SDS011;5493;48.884;8.338;2023-06-26T13:31:25;5.93;;;3.05;;
10880;SDS011;5493;48.884;8.338;2023-06-26T13:33:53;3.10;;;2.72;;
10880;SDS011;5493;48.884;8.338;2023-06-26T13:36:19;3.05;;;2.50;;
10880;SDS011;5493;48.884;8.338;2023-06-26T13:38:47;5.22;;;3.03;;
10880;SDS011;5493;48.884;8.338;2023-06-26T13:41:20;3.58;;;3.00;;
10880;SDS011;5493;48.884;8.338;2023-06-26T13:43:46;5.97;;;3.13;;
10880;SDS011;5493;48.884;8.338;2023-06-26T13:46:13;3.88;;;3.20;;
10880;SDS011;5493;48.884;8.338;2023-06-26T13:48:39;5.85;;;3.42;;
10880;SDS011;5493;48.884;8.338;2023-06-26T13:51:07;4.28;;;3.40;;
10880;SDS011;5493;48.884;8.338;2023-06-26T13:53:34;3.50;;;3.20;;
10880;SDS011;5493;48.884;8.338;2023-06-26T13:56:00;4.38;;;3.67;;
10880;SDS011;5493;48.884;8.338;2023-06-26T13:58:27;8.18;;;3.78;;
10880;SDS011;5493;48.884;8.338;2023-06-26T14:00:57;4.20;;;3.40;;
10880;SDS011;5493;48.884;8.338;2023-06-26T14:03:23;3.78;;;2.92;;
10880;SDS011;5493;48.884;8.338;2023-06-26T14:05:50;4.15;;;3.50;;
10880;SDS011;5493;48.884;8.338;2023-06-26T14:08:18;4.10;;;3.60;;
10880;SDS011;5493;48.884;8.338;2023-06-26T14:10:44;7.65;;;4.28;;
10880;SDS011;5493;48.884;8.338;2023-06-26T14:13:11;4.13;;;3.72;;
10880;SDS011;5493;48.884;8.338;2023-06-26T14:15:40;4.55;;;3.25;;
10880;SDS011;5493;48.884;8.338;2023-06-26T14:18:07;4.60;;;3.53;;
10880;SDS011;5493;48.884;8.338;2023-06-26T14:20:33;4.32;;;3.60;;
10880;SDS011;5493;48.884;8.338;2023-06-26T14:23:01;4.13;;;3.67;;
10880;SDS011;5493;48.884;8.338;2023-06-26T14:25:29;4.40;;;3.60;;
10880;SDS011;5493;48.884;8.338;2023-06-26T14:27:55;6.28;;;4.05;;
10880;SDS011;5493;48.884;8.338;2023-06-26T14:30:22;3.97;;;3.45;;
10880;SDS011;5493;48.884;8.338;2023-06-26T14:32:49;5.38;;;3.72;;
10880;SDS011;5493;48.884;8.338;2023-06-26T14:35:16;3.90;;;3.50;;
10880;SDS011;5493;48.884;8.338;2023-06-26T14:37:42;5.55;;;4.15;;
10880;SDS011;5493;48.884;8.338;2023-06-26T14:40:10;4.70;;;3.75;;
10880;SDS011;5493;48.884;8.338;2023-06-26T14:42:38;6.63;;;4.20;;
10880;SDS011;5493;48.884;8.338;2023-06-26T14:45:05;7.53;;;3.88;;
10880;SDS011;5493;48.884;8.338;2023-06-26T14:47:33;5.40;;;3.45;;
10880;SDS011;5493;48.884;8.338;2023-06-26T14:49:59;6.35;;;3.83;;
10880;SDS011;5493;48.884;8.338;2023-06-26T14:52:26;4.72;;;4.00;;
10880;SDS011;5493;48.884;8.338;2023-06-26T14:54:52;7.60;;;4.07;;
10880;SDS011;5493;48.884;8.338;2023-06-26T14:57:19;4.10;;;3.70;;
10880;SDS011;5493;48.884;8.338;2023-06-26T14:59:47;4.78;;;3.92;;
10880;SDS011;5493;48.884;8.338;2023-06-26T15:02:13;4.28;;;3.72;;